sensor_id;sensor_type;location;lat;lon;timestamp;temperature;humidity
64143;DHT22;50437;51.970;5.904;2023-04-25T00:00:47;6.40;99.90
64143;DHT22;50437;51.970;5.904;2023-04-25T00:03:13;6.50;99.90
64143;DHT22;50437;51.970;5.904;2023-04-25T00:05:39;6.50;99.90
64143;DHT22;50437;51.970;5.904;2023-04-25T00:08:05;6.40;99.90
64143;DHT22;50437;51.970;5.904;2023-04-25T00:10:31;6.40;99.90
64143;DHT22;50437;51.970;5.904;2023-04-25T00:12:57;6.30;99.90
64143;DHT22;50437;51.970;5.904;2023-04-25T00:15:24;6.30;99.90
64143;DHT22;50437;51.970;5.904;2023-04-25T00:17:50;6.30;99.90
64143;DHT22;50437;51.970;5.904;2023-04-25T00:20:18;6.30;99.90
64143;DHT22;50437;51.970;5.904;2023-04-25T00:22:44;6.20;99.90
64143;DHT22;50437;51.970;5.904;2023-04-25T00:25:11;6.20;99.90
64143;DHT22;50437;51.970;5.904;2023-04-25T00:27:36;6.10;99.90
64143;DHT22;50437;51.970;5.904;2023-04-25T00:30:05;6.10;99.90
64143;DHT22;50437;51.970;5.904;2023-04-25T00:32:31;6.10;99.90
64143;DHT22;50437;51.970;5.904;2023-04-25T00:34:57;6.10;99.90
64143;DHT22;50437;51.970;5.904;2023-04-25T00:37:23;6.10;99.90
64143;DHT22;50437;51.970;5.904;2023-04-25T00:39:50;6.00;99.90
64143;DHT22;50437;51.970;5.904;2023-04-25T00:42:16;6.00;99.90
64143;DHT22;50437;51.970;5.904;2023-04-25T00:44:42;6.10;99.90
64143;DHT22;50437;51.970;5.904;2023-04-25T00:47:09;6.00;99.90
64143;DHT22;50437;51.970;5.904;2023-04-25T00:49:36;6.10;99.90
64143;DHT22;50437;51.970;5.904;2023-04-25T00:52:02;6.10;99.90
64143;DHT22;50437;51.970;5.904;2023-04-25T00:54:28;6.10;99.90
64143;DHT22;50437;51.970;5.904;2023-04-25T00:56:57;6.20;99.90
64143;DHT22;50437;51.970;5.904;2023-04-25T00:59:23;6.30;99.90
64143;DHT22;50437;51.970;5.904;2023-04-25T01:01:49;6.20;99.90
64143;DHT22;50437;51.970;5.904;2023-04-25T01:04:15;6.10;99.90
64143;DHT22;50437;51.970;5.904;2023-04-25T01:06:41;6.00;99.90
64143;DHT22;50437;51.970;5.904;2023-04-25T01:09:07;6.00;99.90
64143;DHT22;50437;51.970;5.904;2023-04-25T01:11:33;5.90;99.90
64143;DHT22;50437;51.970;5.904;2023-04-25T01:13:59;5.90;99.90
64143;DHT22;50437;51.970;5.904;2023-04-25T01:16:26;6.00;99.90
64143;DHT22;50437;51.970;5.904;2023-04-25T01:18:52;5.90;99.90
64143;DHT22;50437;51.970;5.904;2023-04-25T01:21:18;6.00;99.90
64143;DHT22;50437;51.970;5.904;2023-04-25T01:23:47;6.00;99.90
64143;DHT22;50437;51.970;5.904;2023-04-25T01:26:13;5.90;99.90
64143;DHT22;50437;51.970;5.904;2023-04-25T01:28:40;5.90;99.90
64143;DHT22;50437;51.970;5.904;2023-04-25T01:31:11;6.00;99.90
64143;DHT22;50437;51.970;5.904;2023-04-25T01:33:41;5.90;99.90
64143;DHT22;50437;51.970;5.904;2023-04-25T01:36:07;5.90;99.90
64143;DHT22;50437;51.970;5.904;2023-04-25T01:38:34;5.90;99.90
64143;DHT22;50437;51.970;5.904;2023-04-25T01:41:03;5.90;99.90
64143;DHT22;50437;51.970;5.904;2023-04-25T01:43:29;5.90;99.90
64143;DHT22;50437;51.970;5.904;2023-04-25T01:45:55;5.90;99.90
64143;DHT22;50437;51.970;5.904;2023-04-25T01:48:22;5.90;99.90
64143;DHT22;50437;51.970;5.904;2023-04-25T01:50:51;5.80;99.90
64143;DHT22;50437;51.970;5.904;2023-04-25T01:53:18;5.90;99.90
64143;DHT22;50437;51.970;5.904;2023-04-25T01:55:45;5.80;99.90
64143;DHT22;50437;51.970;5.904;2023-04-25T01:58:14;6.00;99.90
64143;DHT22;50437;51.970;5.904;2023-04-25T02:01:18;5.90;99.90
64143;DHT22;50437;51.970;5.904;2023-04-25T02:03:54;5.90;99.90
64143;DHT22;50437;51.970;5.904;2023-04-25T02:06:26;5.90;99.90
64143;DHT22;50437;51.970;5.904;2023-04-25T02:08:54;5.90;99.90
64143;DHT22;50437;51.970;5.904;2023-04-25T02:11:22;6.00;99.90
64143;DHT22;50437;51.970;5.904;2023-04-25T02:14:12;5.90;99.90
64143;DHT22;50437;51.970;5.904;2023-04-25T02:16:46;5.90;99.90
64143;DHT22;50437;51.970;5.904;2023-04-25T02:19:13;5.90;99.90
64143;DHT22;50437;51.970;5.904;2023-04-25T02:21:39;5.90;99.90
64143;DHT22;50437;51.970;5.904;2023-04-25T02:24:10;5.80;99.90
64143;DHT22;50437;51.970;5.904;2023-04-25T02:26:38;5.70;99.90
64143;DHT22;50437;51.970;5.904;2023-04-25T02:29:07;5.80;99.90
64143;DHT22;50437;51.970;5.904;2023-04-25T02:31:33;5.70;99.90
64143;DHT22;50437;51.970;5.904;2023-04-25T02:33:59;5.70;99.90
64143;DHT22;50437;51.970;5.904;2023-04-25T02:36:28;5.70;99.90
64143;DHT22;50437;51.970;5.904;2023-04-25T02:38:56;5.70;99.90
64143;DHT22;50437;51.970;5.904;2023-04-25T02:41:22;5.70;99.90
64143;DHT22;50437;51.970;5.904;2023-04-25T02:43:47;5.70;99.90
64143;DHT22;50437;51.970;5.904;2023-04-25T02:46:13;5.70;99.90
64143;DHT22;50437;51.970;5.904;2023-04-25T02:48:40;5.70;99.90
64143;DHT22;50437;51.970;5.904;2023-04-25T02:51:05;5.50;99.90
64143;DHT22;50437;51.970;5.904;2023-04-25T02:53:32;5.50;99.90
64143;DHT22;50437;51.970;5.904;2023-04-25T02:55:58;5.40;99.90
64143;DHT22;50437;51.970;5.904;2023-04-25T02:58:24;5.40;99.90
64143;DHT22;50437;51.970;5.904;2023-04-25T03:00:52;5.40;99.90
64143;DHT22;50437;51.970;5.904;2023-04-25T03:03:18;5.30;99.90
64143;DHT22;50437;51.970;5.904;2023-04-25T03:05:50;5.30;99.90
64143;DHT22;50437;51.970;5.904;2023-04-25T03:08:21;5.30;99.90
64143;DHT22;50437;51.970;5.904;2023-04-25T03:10:47;5.30;99.90
64143;DHT22;50437;51.970;5.904;2023-04-25T03:13:17;5.30;99.90
64143;DHT22;50437;51.970;5.904;2023-04-25T03:15:43;5.30;99.90
64143;DHT22;50437;51.970;5.904;2023-04-25T03:18:12;5.20;99.90
64143;DHT22;50437;51.970;5.904;2023-04-25T03:20:39;5.20;99.90
64143;DHT22;50437;51.970;5.904;2023-04-25T03:23:08;5.10;99.90
64143;DHT22;50437;51.970;5.904;2023-04-25T03:25:34;5.10;99.90
64143;DHT22;50437;51.970;5.904;2023-04-25T03:28:00;5.00;99.90
64143;DHT22;50437;51.970;5.904;2023-04-25T03:30:26;5.00;99.90
64143;DHT22;50437;51.970;5.904;2023-04-25T03:32:52;4.90;99.90
64143;DHT22;50437;51.970;5.904;2023-04-25T03:35:18;5.00;99.90
64143;DHT22;50437;51.970;5.904;2023-04-25T03:37:47;5.10;99.90
64143;DHT22;50437;51.970;5.904;2023-04-25T03:40:19;5.00;99.90
64143;DHT22;50437;51.970;5.904;2023-04-25T03:43:03;5.00;99.90
64143;DHT22;50437;51.970;5.904;2023-04-25T03:45:30;5.00;99.90
64143;DHT22;50437;51.970;5.904;2023-04-25T03:47:56;5.00;99.90
64143;DHT22;50437;51.970;5.904;2023-04-25T03:50:22;5.00;99.90
64143;DHT22;50437;51.970;5.904;2023-04-25T03:52:48;5.00;99.90
64143;DHT22;50437;51.970;5.904;2023-04-25T03:55:14;5.10;99.90
64143;DHT22;50437;51.970;5.904;2023-04-25T03:57:40;5.20;99.90
64143;DHT22;50437;51.970;5.904;2023-04-25T04:00:06;5.10;99.90
64143;DHT22;50437;51.970;5.904;2023-04-25T04:02:39;5.10;99.90
64143;DHT22;50437;51.970;5.904;2023-04-25T04:05:05;5.00;99.90
64143;DHT22;50437;51.970;5.904;2023-04-25T04:07:34;5.00;99.90
64143;DHT22;50437;51.970;5.904;2023-04-25T04:10:06;5.00;99.90
64143;DHT22;50437;51.970;5.904;2023-04-25T04:12:36;4.90;99.90
64143;DHT22;50437;51.970;5.904;2023-04-25T04:15:06;4.90;99.90
64143;DHT22;50437;51.970;5.904;2023-04-25T04:17:33;4.90;99.90
64143;DHT22;50437;51.970;5.904;2023-04-25T04:19:59;4.80;99.90
64143;DHT22;50437;51.970;5.904;2023-04-25T04:22:28;4.70;99.90
64143;DHT22;50437;51.970;5.904;2023-04-25T04:24:58;4.70;99.90
64143;DHT22;50437;51.970;5.904;2023-04-25T04:27:55;4.60;99.90
64143;DHT22;50437;51.970;5.904;2023-04-25T04:30:34;4.50;99.90
64143;DHT22;50437;51.970;5.904;2023-04-25T04:33:05;4.60;99.90
64143;DHT22;50437;51.970;5.904;2023-04-25T04:35:39;4.50;99.90
64143;DHT22;50437;51.970;5.904;2023-04-25T04:38:05;4.60;99.90
64143;DHT22;50437;51.970;5.904;2023-04-25T04:40:35;4.60;99.90
64143;DHT22;50437;51.970;5.904;2023-04-25T04:43:25;4.60;99.90
64143;DHT22;50437;51.970;5.904;2023-04-25T04:45:51;4.60;99.90
64143;DHT22;50437;51.970;5.904;2023-04-25T04:48:19;4.60;99.90
64143;DHT22;50437;51.970;5.904;2023-04-25T04:51:16;4.50;99.90
64143;DHT22;50437;51.970;5.904;2023-04-25T04:53:56;4.60;99.90
64143;DHT22;50437;51.970;5.904;2023-04-25T04:56:42;4.60;99.90
64143;DHT22;50437;51.970;5.904;2023-04-25T04:59:27;4.70;99.90
64143;DHT22;50437;51.970;5.904;2023-04-25T05:02:31;4.70;99.90
64143;DHT22;50437;51.970;5.904;2023-04-25T05:05:09;4.90;99.90
64143;DHT22;50437;51.970;5.904;2023-04-25T05:07:59;5.00;99.90
64143;DHT22;50437;51.970;5.904;2023-04-25T05:10:50;4.90;99.90
64143;DHT22;50437;51.970;5.904;2023-04-25T05:13:32;5.10;99.90
64143;DHT22;50437;51.970;5.904;2023-04-25T05:16:27;5.10;99.90
64143;DHT22;50437;51.970;5.904;2023-04-25T05:19:13;5.20;99.90
64143;DHT22;50437;51.970;5.904;2023-04-25T05:21:49;5.20;99.90
64143;DHT22;50437;51.970;5.904;2023-04-25T05:24:30;5.20;99.90
64143;DHT22;50437;51.970;5.904;2023-04-25T05:27:05;5.40;99.90
64143;DHT22;50437;51.970;5.904;2023-04-25T05:30:05;5.40;99.90
64143;DHT22;50437;51.970;5.904;2023-04-25T05:32:36;5.60;99.90
64143;DHT22;50437;51.970;5.904;2023-04-25T05:35:03;5.70;99.90
64143;DHT22;50437;51.970;5.904;2023-04-25T05:37:38;5.80;99.90
64143;DHT22;50437;51.970;5.904;2023-04-25T05:40:09;5.90;99.90
64143;DHT22;50437;51.970;5.904;2023-04-25T05:42:54;6.00;99.90
64143;DHT22;50437;51.970;5.904;2023-04-25T05:45:26;5.90;99.90
64143;DHT22;50437;51.970;5.904;2023-04-25T05:48:09;5.90;99.90
64143;DHT22;50437;51.970;5.904;2023-04-25T05:50:42;6.00;99.90
64143;DHT22;50437;51.970;5.904;2023-04-25T05:53:26;5.80;99.90
64143;DHT22;50437;51.970;5.904;2023-04-25T05:55:58;5.90;99.90
64143;DHT22;50437;51.970;5.904;2023-04-25T05:58:26;5.80;99.90
64143;DHT22;50437;51.970;5.904;2023-04-25T06:00:53;5.80;99.90
64143;DHT22;50437;51.970;5.904;2023-04-25T06:03:20;5.90;99.90
64143;DHT22;50437;51.970;5.904;2023-04-25T06:05:46;5.90;99.90
64143;DHT22;50437;51.970;5.904;2023-04-25T06:08:12;6.10;99.90
64143;DHT22;50437;51.970;5.904;2023-04-25T06:10:37;6.30;99.90
64143;DHT22;50437;51.970;5.904;2023-04-25T06:13:04;6.40;99.90
64143;DHT22;50437;51.970;5.904;2023-04-25T06:15:31;6.50;99.90
64143;DHT22;50437;51.970;5.904;2023-04-25T06:18:00;6.40;99.90
64143;DHT22;50437;51.970;5.904;2023-04-25T06:20:28;6.40;99.90
64143;DHT22;50437;51.970;5.904;2023-04-25T06:22:57;6.60;99.90
64143;DHT22;50437;51.970;5.904;2023-04-25T06:25:36;6.80;99.90
64143;DHT22;50437;51.970;5.904;2023-04-25T06:28:02;6.80;99.90
64143;DHT22;50437;51.970;5.904;2023-04-25T06:30:28;6.80;99.90
64143;DHT22;50437;51.970;5.904;2023-04-25T06:33:01;6.70;99.90
64143;DHT22;50437;51.970;5.904;2023-04-25T06:35:28;6.80;99.90
64143;DHT22;50437;51.970;5.904;2023-04-25T06:37:54;7.00;99.90
64143;DHT22;50437;51.970;5.904;2023-04-25T06:40:22;6.90;99.90
64143;DHT22;50437;51.970;5.904;2023-04-25T06:42:49;7.20;99.90
64143;DHT22;50437;51.970;5.904;2023-04-25T06:45:50;7.40;99.90
64143;DHT22;50437;51.970;5.904;2023-04-25T06:48:18;7.50;99.90
64143;DHT22;50437;51.970;5.904;2023-04-25T06:50:44;7.30;99.90
64143;DHT22;50437;51.970;5.904;2023-04-25T06:53:11;7.70;99.90
64143;DHT22;50437;51.970;5.904;2023-04-25T06:55:38;7.90;99.90
64143;DHT22;50437;51.970;5.904;2023-04-25T06:58:18;7.90;99.90
64143;DHT22;50437;51.970;5.904;2023-04-25T07:00:50;7.70;99.90
64143;DHT22;50437;51.970;5.904;2023-04-25T07:03:20;7.60;99.90
64143;DHT22;50437;51.970;5.904;2023-04-25T07:05:47;7.50;99.90
64143;DHT22;50437;51.970;5.904;2023-04-25T07:08:12;7.50;99.90
64143;DHT22;50437;51.970;5.904;2023-04-25T07:10:38;7.50;99.90
64143;DHT22;50437;51.970;5.904;2023-04-25T07:13:05;7.90;99.90
64143;DHT22;50437;51.970;5.904;2023-04-25T07:15:31;8.00;99.90
64143;DHT22;50437;51.970;5.904;2023-04-25T07:17:58;8.00;99.90
64143;DHT22;50437;51.970;5.904;2023-04-25T07:20:25;8.10;99.90
64143;DHT22;50437;51.970;5.904;2023-04-25T07:22:51;8.30;99.90
64143;DHT22;50437;51.970;5.904;2023-04-25T07:25:18;8.30;99.90
64143;DHT22;50437;51.970;5.904;2023-04-25T07:27:44;8.50;99.90
64143;DHT22;50437;51.970;5.904;2023-04-25T07:30:20;8.50;99.90
64143;DHT22;50437;51.970;5.904;2023-04-25T07:32:47;8.00;99.90
64143;DHT22;50437;51.970;5.904;2023-04-25T07:35:13;8.30;99.90
64143;DHT22;50437;51.970;5.904;2023-04-25T07:37:40;8.60;99.90
64143;DHT22;50437;51.970;5.904;2023-04-25T07:40:12;8.80;99.90
64143;DHT22;50437;51.970;5.904;2023-04-25T07:42:44;8.80;99.90
64143;DHT22;50437;51.970;5.904;2023-04-25T07:45:14;8.90;99.90
64143;DHT22;50437;51.970;5.904;2023-04-25T07:47:41;9.80;99.90
64143;DHT22;50437;51.970;5.904;2023-04-25T07:50:08;11.10;99.90
64143;DHT22;50437;51.970;5.904;2023-04-25T07:52:34;10.50;99.90
64143;DHT22;50437;51.970;5.904;2023-04-25T07:55:14;10.70;99.90
64143;DHT22;50437;51.970;5.904;2023-04-25T07:58:08;10.60;99.90
64143;DHT22;50437;51.970;5.904;2023-04-25T08:01:10;10.50;99.90
64143;DHT22;50437;51.970;5.904;2023-04-25T08:04:10;10.90;99.90
64143;DHT22;50437;51.970;5.904;2023-04-25T08:06:57;12.80;99.90
64143;DHT22;50437;51.970;5.904;2023-04-25T08:09:27;13.50;98.30
64143;DHT22;50437;51.970;5.904;2023-04-25T08:11:55;12.70;99.90
64143;DHT22;50437;51.970;5.904;2023-04-25T08:14:26;11.90;99.90
64143;DHT22;50437;51.970;5.904;2023-04-25T08:16:52;11.60;99.90
64143;DHT22;50437;51.970;5.904;2023-04-25T08:19:19;13.10;96.60
64143;DHT22;50437;51.970;5.904;2023-04-25T08:21:48;13.30;90.30
64143;DHT22;50437;51.970;5.904;2023-04-25T08:24:21;14.40;83.40
64143;DHT22;50437;51.970;5.904;2023-04-25T08:26:47;15.30;76.40
64143;DHT22;50437;51.970;5.904;2023-04-25T08:29:16;16.20;67.80
64143;DHT22;50437;51.970;5.904;2023-04-25T08:31:42;15.80;64.70
64143;DHT22;50437;51.970;5.904;2023-04-25T08:34:09;15.60;59.80
64143;DHT22;50437;51.970;5.904;2023-04-25T08:36:47;16.90;57.20
64143;DHT22;50437;51.970;5.904;2023-04-25T08:39:23;16.70;56.80
64143;DHT22;50437;51.970;5.904;2023-04-25T08:42:09;15.30;56.90
64143;DHT22;50437;51.970;5.904;2023-04-25T08:44:38;12.80;62.00
64143;DHT22;50437;51.970;5.904;2023-04-25T08:47:04;11.30;66.80
64143;DHT22;50437;51.970;5.904;2023-04-25T08:49:34;10.80;78.90
64143;DHT22;50437;51.970;5.904;2023-04-25T08:52:00;10.60;90.20
64143;DHT22;50437;51.970;5.904;2023-04-25T08:54:33;10.20;98.60
64143;DHT22;50437;51.970;5.904;2023-04-25T08:57:01;10.40;99.90
64143;DHT22;50437;51.970;5.904;2023-04-25T08:59:30;10.70;99.90
64143;DHT22;50437;51.970;5.904;2023-04-25T09:02:00;10.80;99.90
64143;DHT22;50437;51.970;5.904;2023-04-25T09:04:31;10.70;99.60
64143;DHT22;50437;51.970;5.904;2023-04-25T09:06:57;10.40;98.00
64143;DHT22;50437;51.970;5.904;2023-04-25T09:09:24;9.60;99.90
64143;DHT22;50437;51.970;5.904;2023-04-25T09:11:50;9.90;99.90
64143;DHT22;50437;51.970;5.904;2023-04-25T09:14:22;9.80;99.90
64143;DHT22;50437;51.970;5.904;2023-04-25T09:17:00;9.60;96.30
64143;DHT22;50437;51.970;5.904;2023-04-25T09:19:41;9.30;99.90
64143;DHT22;50437;51.970;5.904;2023-04-25T09:22:28;9.20;99.90
64143;DHT22;50437;51.970;5.904;2023-04-25T09:24:54;9.40;99.90
64143;DHT22;50437;51.970;5.904;2023-04-25T09:27:24;9.40;99.90
64143;DHT22;50437;51.970;5.904;2023-04-25T09:30:00;10.20;99.90
64143;DHT22;50437;51.970;5.904;2023-04-25T09:32:30;10.70;99.90
64143;DHT22;50437;51.970;5.904;2023-04-25T09:34:57;10.40;99.90
64143;DHT22;50437;51.970;5.904;2023-04-25T09:37:26;10.00;99.90
64143;DHT22;50437;51.970;5.904;2023-04-25T09:40:05;9.50;97.10
64143;DHT22;50437;51.970;5.904;2023-04-25T09:42:34;9.80;99.90
64143;DHT22;50437;51.970;5.904;2023-04-25T09:45:04;10.20;99.90
64143;DHT22;50437;51.970;5.904;2023-04-25T09:47:37;10.90;98.20
64143;DHT22;50437;51.970;5.904;2023-04-25T09:50:13;11.80;91.70
64143;DHT22;50437;51.970;5.904;2023-04-25T09:52:41;13.90;90.00
64143;DHT22;50437;51.970;5.904;2023-04-25T09:55:15;13.70;67.10
64143;DHT22;50437;51.970;5.904;2023-04-25T09:57:43;15.10;66.90
64143;DHT22;50437;51.970;5.904;2023-04-25T10:00:14;14.10;58.20
64143;DHT22;50437;51.970;5.904;2023-04-25T10:02:40;14.10;64.10
64143;DHT22;50437;51.970;5.904;2023-04-25T10:05:22;14.40;59.70
64143;DHT22;50437;51.970;5.904;2023-04-25T10:07:48;12.50;58.90
64143;DHT22;50437;51.970;5.904;2023-04-25T10:10:16;14.30;64.70
64143;DHT22;50437;51.970;5.904;2023-04-25T10:12:44;14.20;58.00
64143;DHT22;50437;51.970;5.904;2023-04-25T10:15:10;13.60;64.10
64143;DHT22;50437;51.970;5.904;2023-04-25T10:17:38;13.00;62.50
64143;DHT22;50437;51.970;5.904;2023-04-25T10:20:04;12.40;63.50
64143;DHT22;50437;51.970;5.904;2023-04-25T10:22:40;11.50;66.10
64143;DHT22;50437;51.970;5.904;2023-04-25T10:25:07;11.30;75.50
64143;DHT22;50437;51.970;5.904;2023-04-25T10:27:34;10.90;80.40
64143;DHT22;50437;51.970;5.904;2023-04-25T10:30:01;11.00;92.20
64143;DHT22;50437;51.970;5.904;2023-04-25T10:32:30;11.30;84.70
64143;DHT22;50437;51.970;5.904;2023-04-25T10:34:57;12.10;74.40
64143;DHT22;50437;51.970;5.904;2023-04-25T10:37:23;12.10;71.70
64143;DHT22;50437;51.970;5.904;2023-04-25T10:39:49;11.90;70.10
64143;DHT22;50437;51.970;5.904;2023-04-25T10:42:16;11.60;71.90
64143;DHT22;50437;51.970;5.904;2023-04-25T10:44:47;11.00;76.20
64143;DHT22;50437;51.970;5.904;2023-04-25T10:47:34;10.60;92.70
64143;DHT22;50437;51.970;5.904;2023-04-25T10:50:04;10.50;96.80
64143;DHT22;50437;51.970;5.904;2023-04-25T10:52:30;10.70;96.60
64143;DHT22;50437;51.970;5.904;2023-04-25T10:54:58;11.70;97.10
64143;DHT22;50437;51.970;5.904;2023-04-25T10:57:40;12.60;93.50
64143;DHT22;50437;51.970;5.904;2023-04-25T11:02:37;13.30;84.00
64143;DHT22;50437;51.970;5.904;2023-04-25T11:05:03;14.00;82.80
64143;DHT22;50437;51.970;5.904;2023-04-25T11:07:49;13.40;77.10
64143;DHT22;50437;51.970;5.904;2023-04-25T11:10:16;12.70;79.50
64143;DHT22;50437;51.970;5.904;2023-04-25T11:12:42;12.30;79.50
64143;DHT22;50437;51.970;5.904;2023-04-25T11:15:08;12.80;76.90
64143;DHT22;50437;51.970;5.904;2023-04-25T11:17:34;13.20;72.50
64143;DHT22;50437;51.970;5.904;2023-04-25T11:20:01;12.60;70.90
64143;DHT22;50437;51.970;5.904;2023-04-25T11:22:32;12.10;70.80
64143;DHT22;50437;51.970;5.904;2023-04-25T11:25:04;11.80;73.00
64143;DHT22;50437;51.970;5.904;2023-04-25T11:27:30;12.40;74.60
64143;DHT22;50437;51.970;5.904;2023-04-25T11:29:56;13.70;81.00
64143;DHT22;50437;51.970;5.904;2023-04-25T11:32:22;14.10;56.80
64143;DHT22;50437;51.970;5.904;2023-04-25T11:34:48;14.40;56.00
64143;DHT22;50437;51.970;5.904;2023-04-25T11:37:15;14.10;55.80
64143;DHT22;50437;51.970;5.904;2023-04-25T11:39:44;14.10;54.30
64143;DHT22;50437;51.970;5.904;2023-04-25T11:42:11;13.40;52.90
64143;DHT22;50437;51.970;5.904;2023-04-25T11:44:38;13.60;53.90
64143;DHT22;50437;51.970;5.904;2023-04-25T11:47:05;13.60;54.20
64143;DHT22;50437;51.970;5.904;2023-04-25T11:49:32;13.40;55.30
64143;DHT22;50437;51.970;5.904;2023-04-25T11:51:58;12.40;57.30
64143;DHT22;50437;51.970;5.904;2023-04-25T11:54:25;12.10;56.40
64143;DHT22;50437;51.970;5.904;2023-04-25T11:56:51;11.80;59.60
64143;DHT22;50437;51.970;5.904;2023-04-25T11:59:18;12.80;60.10
64143;DHT22;50437;51.970;5.904;2023-04-25T12:01:49;13.60;58.30
64143;DHT22;50437;51.970;5.904;2023-04-25T12:04:19;13.70;56.50
64143;DHT22;50437;51.970;5.904;2023-04-25T12:06:46;13.50;57.50
64143;DHT22;50437;51.970;5.904;2023-04-25T12:09:13;12.70;56.80
64143;DHT22;50437;51.970;5.904;2023-04-25T12:11:45;12.50;54.10
64143;DHT22;50437;51.970;5.904;2023-04-25T12:14:12;12.20;57.40
64143;DHT22;50437;51.970;5.904;2023-04-25T12:16:42;11.90;62.00
64143;DHT22;50437;51.970;5.904;2023-04-25T12:19:13;11.60;68.00
64143;DHT22;50437;51.970;5.904;2023-04-25T12:21:39;10.90;72.80
64143;DHT22;50437;51.970;5.904;2023-04-25T12:24:21;10.80;82.00
64143;DHT22;50437;51.970;5.904;2023-04-25T12:29:18;9.90;97.00
64143;DHT22;50437;51.970;5.904;2023-04-25T12:31:48;9.80;99.90
64143;DHT22;50437;51.970;5.904;2023-04-25T12:34:14;9.50;99.90
64143;DHT22;50437;51.970;5.904;2023-04-25T12:36:40;9.80;99.90
64143;DHT22;50437;51.970;5.904;2023-04-25T12:39:06;9.80;99.90
64143;DHT22;50437;51.970;5.904;2023-04-25T12:41:33;9.70;99.90
64143;DHT22;50437;51.970;5.904;2023-04-25T12:43:59;9.90;99.90
64143;DHT22;50437;51.970;5.904;2023-04-25T12:46:25;10.00;99.90
64143;DHT22;50437;51.970;5.904;2023-04-25T12:48:51;10.40;99.90
64143;DHT22;50437;51.970;5.904;2023-04-25T12:51:17;10.60;99.90
64143;DHT22;50437;51.970;5.904;2023-04-25T12:53:43;10.50;98.70
64143;DHT22;50437;51.970;5.904;2023-04-25T12:56:09;10.70;93.90
64143;DHT22;50437;51.970;5.904;2023-04-25T12:58:35;10.90;95.40
64143;DHT22;50437;51.970;5.904;2023-04-25T13:01:01;10.70;92.80
64143;DHT22;50437;51.970;5.904;2023-04-25T13:03:27;10.80;91.40
64143;DHT22;50437;51.970;5.904;2023-04-25T13:05:53;11.10;93.70
64143;DHT22;50437;51.970;5.904;2023-04-25T13:08:19;11.20;85.10
64143;DHT22;50437;51.970;5.904;2023-04-25T13:10:49;12.10;83.30
64143;DHT22;50437;51.970;5.904;2023-04-25T13:13:15;12.40;73.70
64143;DHT22;50437;51.970;5.904;2023-04-25T13:15:42;12.30;71.40
64143;DHT22;50437;51.970;5.904;2023-04-25T13:18:08;12.70;74.00
64143;DHT22;50437;51.970;5.904;2023-04-25T13:20:34;13.00;71.70
64143;DHT22;50437;51.970;5.904;2023-04-25T13:23:00;12.80;68.00
64143;DHT22;50437;51.970;5.904;2023-04-25T13:25:26;12.40;68.00
64143;DHT22;50437;51.970;5.904;2023-04-25T13:27:52;12.00;74.50
64143;DHT22;50437;51.970;5.904;2023-04-25T13:30:18;12.20;74.40
64143;DHT22;50437;51.970;5.904;2023-04-25T13:32:45;12.10;73.60
64143;DHT22;50437;51.970;5.904;2023-04-25T13:35:12;11.90;71.20
64143;DHT22;50437;51.970;5.904;2023-04-25T13:37:39;12.40;68.50
64143;DHT22;50437;51.970;5.904;2023-04-25T13:40:09;12.50;71.30
64143;DHT22;50437;51.970;5.904;2023-04-25T13:42:37;11.70;65.70
64143;DHT22;50437;51.970;5.904;2023-04-25T13:45:03;11.40;68.20
64143;DHT22;50437;51.970;5.904;2023-04-25T13:47:29;11.10;68.70
64143;DHT22;50437;51.970;5.904;2023-04-25T13:49:56;11.30;74.80
64143;DHT22;50437;51.970;5.904;2023-04-25T13:52:22;11.60;68.50
64143;DHT22;50437;51.970;5.904;2023-04-25T13:54:50;12.00;61.20
64143;DHT22;50437;51.970;5.904;2023-04-25T13:57:17;12.00;61.70
64143;DHT22;50437;51.970;5.904;2023-04-25T13:59:43;11.40;61.70
64143;DHT22;50437;51.970;5.904;2023-04-25T14:02:09;11.30;64.20
64143;DHT22;50437;51.970;5.904;2023-04-25T14:04:35;11.30;65.20
64143;DHT22;50437;51.970;5.904;2023-04-25T14:07:02;11.40;62.40
64143;DHT22;50437;51.970;5.904;2023-04-25T14:09:28;11.30;64.50
64143;DHT22;50437;51.970;5.904;2023-04-25T14:11:54;11.70;66.70
64143;DHT22;50437;51.970;5.904;2023-04-25T14:14:21;12.10;62.40
64143;DHT22;50437;51.970;5.904;2023-04-25T14:16:47;11.80;59.90
64143;DHT22;50437;51.970;5.904;2023-04-25T14:19:14;11.40;63.70
64143;DHT22;50437;51.970;5.904;2023-04-25T14:21:40;11.20;66.70
64143;DHT22;50437;51.970;5.904;2023-04-25T14:24:06;11.30;70.00
64143;DHT22;50437;51.970;5.904;2023-04-25T14:26:33;10.70;69.90
64143;DHT22;50437;51.970;5.904;2023-04-25T14:28:59;10.70;74.90
64143;DHT22;50437;51.970;5.904;2023-04-25T14:31:25;10.80;72.70
64143;DHT22;50437;51.970;5.904;2023-04-25T14:33:51;10.90;71.30
64143;DHT22;50437;51.970;5.904;2023-04-25T14:36:17;11.30;69.20
64143;DHT22;50437;51.970;5.904;2023-04-25T14:38:44;11.80;64.00
64143;DHT22;50437;51.970;5.904;2023-04-25T14:41:10;12.00;66.50
64143;DHT22;50437;51.970;5.904;2023-04-25T14:43:36;12.30;64.30
64143;DHT22;50437;51.970;5.904;2023-04-25T14:46:04;12.20;61.30
64143;DHT22;50437;51.970;5.904;2023-04-25T14:48:30;12.30;60.90
64143;DHT22;50437;51.970;5.904;2023-04-25T14:50:59;12.50;61.80
64143;DHT22;50437;51.970;5.904;2023-04-25T14:53:28;12.90;57.90
64143;DHT22;50437;51.970;5.904;2023-04-25T14:55:54;13.00;56.60
64143;DHT22;50437;51.970;5.904;2023-04-25T14:58:21;12.50;55.90
64143;DHT22;50437;51.970;5.904;2023-04-25T15:00:47;12.50;56.00
64143;DHT22;50437;51.970;5.904;2023-04-25T15:03:16;12.50;57.70
64143;DHT22;50437;51.970;5.904;2023-04-25T15:05:50;12.50;59.30
64143;DHT22;50437;51.970;5.904;2023-04-25T15:08:20;12.50;61.70
64143;DHT22;50437;51.970;5.904;2023-04-25T15:10:48;12.20;65.30
64143;DHT22;50437;51.970;5.904;2023-04-25T15:13:14;11.80;61.60
64143;DHT22;50437;51.970;5.904;2023-04-25T15:15:41;11.60;60.80
64143;DHT22;50437;51.970;5.904;2023-04-25T15:18:07;12.00;61.30
64143;DHT22;50437;51.970;5.904;2023-04-25T15:20:33;12.20;58.50
64143;DHT22;50437;51.970;5.904;2023-04-25T15:23:03;12.70;57.00
64143;DHT22;50437;51.970;5.904;2023-04-25T15:25:30;12.60;58.40
64143;DHT22;50437;51.970;5.904;2023-04-25T15:27:56;12.00;58.30
64143;DHT22;50437;51.970;5.904;2023-04-25T15:30:23;11.50;61.00
64143;DHT22;50437;51.970;5.904;2023-04-25T15:32:49;11.30;63.70
64143;DHT22;50437;51.970;5.904;2023-04-25T15:35:14;11.00;67.90
64143;DHT22;50437;51.970;5.904;2023-04-25T15:37:41;10.60;70.40
64143;DHT22;50437;51.970;5.904;2023-04-25T15:40:08;10.40;73.80
64143;DHT22;50437;51.970;5.904;2023-04-25T15:42:37;10.10;80.20
64143;DHT22;50437;51.970;5.904;2023-04-25T15:45:03;10.30;87.90
64143;DHT22;50437;51.970;5.904;2023-04-25T15:47:29;10.40;88.90
64143;DHT22;50437;51.970;5.904;2023-04-25T15:49:56;10.40;77.70
64143;DHT22;50437;51.970;5.904;2023-04-25T15:52:22;10.60;73.30
64143;DHT22;50437;51.970;5.904;2023-04-25T15:54:48;11.10;70.80
64143;DHT22;50437;51.970;5.904;2023-04-25T15:57:14;11.10;73.60
64143;DHT22;50437;51.970;5.904;2023-04-25T15:59:40;11.10;67.60